Blue Ridge Highway — 3FEY4 — position and weather

sailwx.info

Track history (hours):
 
Tides and Currents Weather Stations Pressure Air Temp Water Temp Dewpoint Dewpoint Depression Visibility Wind Speed Wind Dir Waves Ship Positions

Blue Ridge Highway

Last reported at 2014-Sep-11 04:33 UTC. Time now 2014-Sep-23 04:27 UTC.
Position S 38°39' E 141°45'.
Warning: this ship's position is 11 days out of date.

Length 180 m; draft 7.9 m.

Type: Cargo ship. MMSI: 355558000.

Date/timePositionNaut miles runAvg speedWind from/ knotsBaromVisibWave heightAir tempDewpointWater temp
2014-Sep-11 04:33S 38°39' E 141°45'1010.3
2014-Sep-11 03:33S 38°42' E 141°58'1010.0
2014-Sep-11 02:33S 38°44' E 142°11'1110.3
2014-Sep-11 01:29S 38°47' E 142°24'153 4.1
2014-Sep-09 12:11S 38°57' E 145°41'1016.0
2014-Sep-09 11:33S 39°02' E 145°52'1616.2
2014-Sep-09 10:33S 39°10' E 146°10'1515.4
2014-Sep-09 09:34S 39°09' E 146°30'1616.1
2014-Sep-09 08:34S 39°04' E 146°50'1615.7
2014-Sep-09 07:34S 38°59' E 147°09'1515.2
2014-Sep-09 06:33S 38°54' E 147°28'11316.2
2014-Sep-08 23:32S 37°58' E 149°33'1716.6
2014-Sep-08 22:32S 37°48' E 149°51'1616.3
2014-Sep-08 21:31S 37°37' E 150°06'1817.5
2014-Sep-08 20:29S 37°20' E 150°13'262 8.2
2014-Sep-07 12:30S 33°15' E 152°06'1616.7
2014-Sep-07 11:33S 33°02' E 152°17'1717.0
2014-Sep-07 10:33S 32°48' E 152°29'1717.1
2014-Sep-07 09:33S 32°34' E 152°41'26915.8
2014-Sep-06 16:33S 28°11' E 153°47'1514.9
2014-Sep-06 15:33S 27°56' E 153°46'1514.7
2014-Sep-06 14:33S 27°41' E 153°44'1414.4
2014-Sep-06 13:33S 27°27' E 153°43'1413.8
2014-Sep-06 12:33S 27°13' E 153°40'1313.4
2014-Sep-06 11:34S 27°01' E 153°36'1312.5
2014-Sep-06 10:33S 26°52' E 153°26'1414.1
2014-Sep-06 09:33S 26°44' E 153°13'10 9.7
2014-Sep-06 08:34S 26°53' E 153°10'1515.0
2014-Sep-06 07:33S 27°06' E 153°19'1212.4
2014-Sep-06 06:34S 27°17' E 153°14'6 6.2
2014-Sep-06 05:33S 27°23' E 153°10'0 0.0
2014-Sep-06 04:33S 27°23' E 153°10'0 0.0
2014-Sep-06 03:33S 27°23' E 153°10'0 0.0
2014-Sep-06 02:33S 27°23' E 153°10'0 0.0
2014-Sep-06 01:33S 27°23' E 153°10'0 0.0
2014-Sep-06 00:33S 27°23' E 153°10'0 0.0
2014-Sep-05 23:33S 27°23' E 153°10'0 0.0
2014-Sep-05 22:33S 27°23' E 153°10'0 0.0
2014-Sep-05 21:33S 27°23' E 153°10'0 0.0
2014-Sep-05 20:33S 27°23' E 153°10'0 0.0
2014-Sep-05 19:33S 27°23' E 153°10'0 0.0
2014-Sep-05 18:33S 27°23' E 153°10'9 9.0
2014-Sep-05 17:34S 27°16' E 153°17'1413.6
2014-Sep-05 16:33S 27°02' E 153°15'1414.4
2014-Sep-05 15:33S 26°49' E 153°10'9 9.0
2014-Sep-05 14:33S 26°40' E 153°13'7 6.7
2014-Sep-05 13:33S 26°34' E 153°15'  
Track history (hours):
 
Tides and Currents Weather Stations Pressure Air Temp Water Temp Dewpoint Dewpoint Depression Visibility Wind Speed Wind Dir Waves Ship Positions

Blue Ridge Highway

Last reported at 2014-Sep-11 04:33 UTC. Time now 2014-Sep-23 04:27 UTC.
Position S 38°39' E 141°45'.
Warning: this ship's position is 11 days out of date.

Length 180 m; draft 7.9 m.

Type: Cargo ship. MMSI: 355558000.

Date/timePositionNaut miles runAvg speedWind from/ knotsBaromVisibWave heightAir tempDewpointWater temp
2014-Sep-11 04:33S 38°39' E 141°45'1010.3
2014-Sep-11 03:33S 38°42' E 141°58'1010.0
2014-Sep-11 02:33S 38°44' E 142°11'1110.3
2014-Sep-11 01:29S 38°47' E 142°24'153 4.1
2014-Sep-09 12:11S 38°57' E 145°41'1016.0
2014-Sep-09 11:33S 39°02' E 145°52'1616.2
2014-Sep-09 10:33S 39°10' E 146°10'1515.4
2014-Sep-09 09:34S 39°09' E 146°30'1616.1
2014-Sep-09 08:34S 39°04' E 146°50'1615.7
2014-Sep-09 07:34S 38°59' E 147°09'1515.2
2014-Sep-09 06:33S 38°54' E 147°28'11316.2
2014-Sep-08 23:32S 37°58' E 149°33'1716.6
2014-Sep-08 22:32S 37°48' E 149°51'1616.3
2014-Sep-08 21:31S 37°37' E 150°06'1817.5
2014-Sep-08 20:29S 37°20' E 150°13'262 8.2
2014-Sep-07 12:30S 33°15' E 152°06'1616.7
2014-Sep-07 11:33S 33°02' E 152°17'1717.0
2014-Sep-07 10:33S 32°48' E 152°29'1717.1
2014-Sep-07 09:33S 32°34' E 152°41'26915.8
2014-Sep-06 16:33S 28°11' E 153°47'1514.9
2014-Sep-06 15:33S 27°56' E 153°46'1514.7
2014-Sep-06 14:33S 27°41' E 153°44'1414.4
2014-Sep-06 13:33S 27°27' E 153°43'1413.8
2014-Sep-06 12:33S 27°13' E 153°40'1313.4
2014-Sep-06 11:34S 27°01' E 153°36'1312.5
2014-Sep-06 10:33S 26°52' E 153°26'1414.1
2014-Sep-06 09:33S 26°44' E 153°13'10 9.7
2014-Sep-06 08:34S 26°53' E 153°10'1515.0
2014-Sep-06 07:33S 27°06' E 153°19'1212.4
2014-Sep-06 06:34S 27°17' E 153°14'6 6.2
2014-Sep-06 05:33S 27°23' E 153°10'0 0.0
2014-Sep-06 04:33S 27°23' E 153°10'0 0.0
2014-Sep-06 03:33S 27°23' E 153°10'0 0.0
2014-Sep-06 02:33S 27°23' E 153°10'0 0.0
2014-Sep-06 01:33S 27°23' E 153°10'0 0.0
2014-Sep-06 00:33S 27°23' E 153°10'0 0.0
2014-Sep-05 23:33S 27°23' E 153°10'0 0.0
2014-Sep-05 22:33S 27°23' E 153°10'0 0.0
2014-Sep-05 21:33S 27°23' E 153°10'0 0.0
2014-Sep-05 20:33S 27°23' E 153°10'0 0.0
2014-Sep-05 19:33S 27°23' E 153°10'0 0.0
2014-Sep-05 18:33S 27°23' E 153°10'9 9.0
2014-Sep-05 17:34S 27°16' E 153°17'1413.6
2014-Sep-05 16:33S 27°02' E 153°15'1414.4
2014-Sep-05 15:33S 26°49' E 153°10'9 9.0
2014-Sep-05 14:33S 26°40' E 153°13'7 6.7
2014-Sep-05 13:33S 26°34' E 153°15'  

Dump ship's entire track history